createdAt,value
2022-11-14T00:00:48.344Z,4.03
2022-11-14T00:03:33.849Z,4.60
2022-11-14T00:06:19.934Z,4.35
2022-11-14T00:09:05.531Z,4.50
2022-11-14T00:11:51.272Z,4.75
2022-11-14T00:14:37.496Z,5.10
2022-11-14T00:17:23.219Z,4.28
2022-11-14T00:20:11.123Z,3.97
2022-11-14T00:22:57.358Z,5.40
2022-11-14T00:25:44.562Z,3.55
2022-11-14T00:28:30.570Z,4.22
2022-11-14T00:31:16.331Z,4.20
2022-11-14T00:34:01.628Z,5.00
2022-11-14T00:36:47.124Z,4.07
2022-11-14T00:39:32.692Z,4.30
2022-11-14T00:42:18.285Z,4.13
2022-11-14T00:45:04.488Z,3.63
2022-11-14T00:47:49.850Z,4.13
2022-11-14T00:50:37.959Z,3.55
2022-11-14T00:53:23.622Z,3.55
2022-11-14T00:56:09.259Z,4.82
2022-11-14T00:58:54.974Z,4.15
2022-11-14T01:01:40.852Z,4.30
2022-11-14T01:04:26.471Z,4.63
2022-11-14T01:07:12.245Z,4.47
2022-11-14T01:09:58.131Z,4.70
2022-11-14T01:12:43.456Z,3.40
2022-11-14T01:15:28.930Z,3.42
2022-11-14T01:18:17.604Z,4.07
2022-11-14T01:21:07.958Z,3.45
2022-11-14T01:23:53.568Z,3.67
2022-11-14T01:26:39.240Z,3.80
2022-11-14T01:29:24.787Z,3.33
2022-11-14T01:32:10.351Z,4.05
2022-11-14T01:34:56.128Z,4.78
2022-11-14T01:37:41.584Z,5.20
2022-11-14T01:40:27.588Z,3.80
2022-11-14T01:43:18.783Z,3.80
2022-11-14T01:46:33.826Z,4.22
2022-11-14T01:49:22.409Z,5.93
2022-11-14T01:52:20.370Z,4.30
2022-11-14T01:55:08.704Z,4.30
2022-11-14T01:57:54.365Z,3.22
2022-11-14T02:00:40.241Z,3.88
2022-11-14T02:03:26.203Z,4.45
2022-11-14T02:06:15.431Z,3.70
2022-11-14T02:09:04.743Z,4.43
2022-11-14T02:11:52.076Z,3.53
2022-11-14T02:14:38.355Z,3.53
2022-11-14T02:17:30.083Z,3.63
2022-11-14T02:20:21.550Z,3.90
2022-11-14T02:23:06.919Z,2.83
2022-11-14T02:25:52.481Z,3.60
2022-11-14T02:28:38.235Z,4.63
2022-11-14T02:31:23.696Z,4.80
2022-11-14T02:34:09.044Z,3.75
2022-11-14T02:36:54.456Z,3.42
2022-11-14T02:39:40.875Z,3.97
2022-11-14T02:42:26.667Z,2.50
2022-11-14T02:45:13.220Z,3.78
2022-11-14T02:47:58.514Z,3.20
2022-11-14T02:50:44.233Z,3.08
2022-11-14T02:53:29.772Z,2.83
2022-11-14T02:56:15.390Z,4.30
2022-11-14T02:59:00.783Z,3.30
2022-11-14T03:01:46.307Z,4.35
2022-11-14T03:04:32.123Z,3.40
2022-11-14T03:07:18.754Z,2.63
2022-11-14T03:10:04.730Z,3.00
2022-11-14T03:12:57.300Z,3.15
2022-11-14T03:15:42.625Z,4.22
2022-11-14T03:18:28.278Z,3.17
2022-11-14T03:21:17.814Z,3.80
2022-11-14T03:24:03.285Z,3.13
2022-11-14T03:26:49.029Z,3.33
2022-11-14T03:29:34.741Z,4.32
2022-11-14T03:32:20.273Z,3.72
2022-11-14T03:35:06.548Z,3.25
2022-11-14T03:37:56.154Z,2.90
2022-11-14T03:40:42.789Z,2.40
2022-11-14T03:43:32.696Z,3.05
2022-11-14T03:46:18.155Z,2.78
2022-11-14T03:49:06.967Z,3.85
2022-11-14T03:51:52.558Z,3.28
2022-11-14T03:54:38.412Z,2.70
2022-11-14T03:57:24.234Z,3.75
2022-11-14T04:00:10.435Z,2.28
2022-11-14T04:02:57.046Z,2.83
2022-11-14T04:05:45.829Z,5.40
2022-11-14T04:08:32.808Z,2.72
2022-11-14T04:11:18.986Z,3.70
2022-11-14T04:14:04.955Z,3.50
2022-11-14T04:16:50.255Z,3.53
2022-11-14T04:19:36.159Z,2.20
2022-11-14T04:22:21.886Z,3.60
2022-11-14T04:25:08.424Z,2.53
2022-11-14T04:27:54.175Z,3.38
2022-11-14T04:30:39.695Z,2.70
2022-11-14T04:33:25.315Z,2.40
2022-11-14T04:36:10.827Z,3.05
2022-11-14T04:38:56.384Z,3.72
2022-11-14T04:41:41.838Z,3.45
2022-11-14T04:44:27.045Z,3.67
2022-11-14T04:47:12.799Z,3.58
2022-11-14T04:49:58.082Z,3.00
2022-11-14T04:52:43.566Z,3.58
2022-11-14T04:55:28.934Z,4.13
2022-11-14T04:58:14.433Z,2.83
2022-11-14T05:01:00.077Z,2.83
2022-11-14T05:03:45.913Z,2.75
2022-11-14T05:06:31.616Z,2.22
2022-11-14T05:09:17.056Z,2.97
2022-11-14T05:12:04.008Z,3.45
2022-11-14T05:14:49.443Z,3.75
2022-11-14T05:17:35.121Z,2.60
2022-11-14T05:20:20.430Z,3.42
2022-11-14T05:23:06.118Z,3.45
2022-11-14T05:26:05.448Z,2.70
2022-11-14T05:28:51.111Z,2.92
2022-11-14T05:31:36.533Z,3.08
2022-11-14T05:34:21.869Z,3.47
2022-11-14T05:37:08.625Z,2.40
2022-11-14T05:39:53.893Z,3.10
2022-11-14T05:42:39.202Z,3.95
2022-11-14T05:45:24.888Z,2.72
2022-11-14T05:48:10.172Z,3.33
2022-11-14T05:51:01.881Z,4.03
2022-11-14T05:53:47.897Z,2.92
2022-11-14T05:56:33.755Z,3.03
2022-11-14T05:59:19.397Z,2.75
2022-11-14T06:02:05.389Z,2.70
2022-11-14T06:04:51.179Z,3.22
2022-11-14T06:07:37.149Z,3.72
2022-11-14T06:10:23.506Z,3.35
2022-11-14T06:13:10.665Z,2.70
2022-11-14T06:16:02.309Z,3.15
2022-11-14T06:18:48.725Z,3.40
2022-11-14T06:21:37.571Z,3.03
2022-11-14T06:24:23.056Z,2.38
2022-11-14T06:27:09.988Z,3.88
2022-11-14T06:29:55.550Z,3.83
2022-11-14T06:32:41.167Z,3.65
2022-11-14T06:35:27.392Z,3.00
2022-11-14T06:38:13.049Z,4.15
2022-11-14T06:41:06.650Z,4.10
2022-11-14T06:43:55.592Z,3.08
2022-11-14T06:46:41.357Z,4.03
2022-11-14T06:49:27.827Z,3.67
2022-11-14T06:52:13.451Z,2.85
2022-11-14T06:54:59.199Z,4.28
2022-11-14T06:57:44.819Z,3.67
2022-11-14T07:00:32.968Z,3.72
2022-11-14T07:03:21.250Z,4.15
2022-11-14T07:06:07.962Z,2.53
2022-11-14T07:08:54.595Z,3.50
2022-11-14T07:11:40.576Z,2.78
2022-11-14T07:14:25.854Z,2.97
2022-11-14T07:17:11.143Z,3.03
2022-11-14T07:19:56.935Z,2.63
2022-11-14T07:22:42.631Z,2.63
2022-11-14T07:25:28.116Z,2.55
2022-11-14T07:28:13.697Z,4.20
2022-11-14T07:30:58.937Z,7.13
2022-11-14T07:33:45.278Z,6.50
2022-11-14T07:36:30.837Z,6.65
2022-11-14T07:39:16.487Z,4.35
2022-11-14T07:42:01.826Z,4.40
2022-11-14T07:44:47.330Z,4.25
2022-11-14T07:47:33.307Z,3.10
2022-11-14T07:50:20.598Z,2.38
2022-11-14T07:53:06.504Z,2.70
2022-11-14T07:55:52.255Z,2.58
2022-11-14T07:58:39.253Z,3.13
2022-11-14T08:01:24.955Z,4.03
2022-11-14T08:04:10.550Z,3.08
2022-11-14T08:06:55.961Z,4.30
2022-11-14T08:09:42.081Z,4.15
2022-11-14T08:12:28.040Z,3.22
2022-11-14T08:15:14.630Z,3.47
2022-11-14T08:18:01.678Z,4.28
2022-11-14T08:20:47.804Z,4.60
2022-11-14T08:23:33.618Z,4.43
2022-11-14T08:26:18.970Z,3.45
2022-11-14T08:29:04.887Z,4.43
2022-11-14T08:31:51.884Z,4.40
2022-11-14T08:34:39.063Z,4.32
2022-11-14T08:37:24.744Z,3.35
2022-11-14T08:40:11.399Z,3.25
2022-11-14T08:43:02.066Z,3.90
2022-11-14T08:45:48.874Z,4.53
2022-11-14T08:48:34.827Z,4.85
2022-11-14T08:51:20.596Z,3.45
2022-11-14T08:54:06.942Z,4.30
2022-11-14T08:56:52.679Z,3.22
2022-11-14T08:59:38.004Z,3.42
2022-11-14T09:02:24.238Z,4.05
2022-11-14T09:05:10.646Z,4.10
2022-11-14T09:07:56.122Z,4.22
2022-11-14T09:10:41.631Z,3.40
2022-11-14T09:13:27.837Z,4.43
2022-11-14T09:16:13.698Z,3.03
2022-11-14T09:19:00.112Z,4.55
2022-11-14T09:21:45.946Z,4.00
2022-11-14T09:24:31.243Z,4.45
2022-11-14T09:27:17.214Z,3.50
2022-11-14T09:30:03.613Z,5.63
2022-11-14T09:32:50.201Z,4.07
2022-11-14T09:35:37.850Z,5.13
2022-11-14T09:38:23.440Z,4.60
2022-11-14T09:41:08.976Z,4.82
2022-11-14T09:44:09.445Z,5.78
2022-11-14T09:47:20.439Z,4.57
2022-11-14T09:50:30.777Z,4.45
2022-11-14T09:53:40.015Z,4.22
2022-11-14T09:56:27.091Z,4.13
2022-11-14T09:59:13.485Z,3.55
2022-11-14T10:02:05.988Z,4.43
2022-11-14T10:05:22.531Z,4.10
2022-11-14T10:08:13.806Z,3.63
2022-11-14T10:11:24.085Z,4.80
2022-11-14T10:14:30.832Z,3.80
2022-11-14T10:17:19.336Z,3.63
2022-11-14T10:20:13.993Z,3.65
2022-11-14T10:23:18.870Z,4.57
2022-11-14T10:26:13.129Z,4.03
2022-11-14T10:29:26.383Z,3.90
2022-11-14T10:33:06.101Z,3.08
2022-11-14T10:36:11.724Z,3.88
2022-11-14T10:39:29.592Z,3.92
2022-11-14T10:42:35.755Z,3.75
2022-11-14T10:45:35.881Z,4.15
2022-11-14T10:48:49.927Z,4.30
2022-11-14T10:51:46.019Z,3.78
2022-11-14T10:55:00.193Z,3.33
2022-11-14T10:57:46.570Z,3.95
2022-11-14T11:00:32.331Z,3.25
2022-11-14T11:03:17.979Z,3.40
2022-11-14T11:06:03.744Z,3.92
2022-11-14T11:09:07.667Z,4.70
2022-11-14T11:12:02.586Z,3.17
2022-11-14T11:14:50.419Z,3.13
2022-11-14T11:17:41.738Z,3.33
2022-11-14T11:20:41.224Z,3.28
2022-11-14T11:23:28.201Z,4.70
2022-11-14T11:26:25.407Z,4.28
2022-11-14T11:29:11.201Z,5.03
2022-11-14T11:32:02.530Z,5.38
2022-11-14T11:34:51.632Z,4.47
2022-11-14T11:37:40.418Z,3.45
2022-11-14T11:40:28.652Z,3.92
2022-11-14T11:43:37.841Z,3.78
2022-11-14T11:46:29.551Z,2.80
2022-11-14T11:52:49.783Z,3.03
2022-11-14T11:55:43.766Z,3.20
2022-11-14T11:59:17.873Z,3.85
2022-11-14T12:02:17.617Z,4.03
2022-11-14T12:05:03.592Z,3.42
2022-11-14T12:08:21.168Z,3.63
2022-11-14T12:11:15.053Z,3.17
2022-11-14T12:14:12.737Z,3.05
2022-11-14T12:17:13.381Z,4.30
2022-11-14T12:20:01.497Z,4.32
2022-11-14T12:22:58.685Z,3.30
2022-11-14T12:25:47.801Z,2.92
2022-11-14T12:28:39.339Z,3.03
2022-11-14T12:31:28.279Z,3.85
2022-11-14T12:34:39.485Z,3.22
2022-11-14T12:37:35.662Z,3.40
2022-11-14T12:40:31.668Z,3.85
2022-11-14T12:43:40.571Z,2.88
2022-11-14T12:46:26.035Z,3.58
2022-11-14T12:49:38.041Z,3.08
2022-11-14T12:52:45.052Z,3.50
2022-11-14T12:55:30.816Z,2.83
2022-11-14T12:58:31.447Z,3.42
2022-11-14T13:01:50.509Z,3.97
2022-11-14T13:05:03.056Z,3.97
2022-11-14T13:08:08.074Z,3.47
2022-11-14T13:10:53.302Z,3.38
2022-11-14T13:14:19.843Z,3.50
2022-11-14T13:17:36.113Z,3.47
2022-11-14T13:20:52.710Z,3.20
2022-11-14T13:23:41.104Z,3.60
2022-11-14T13:26:35.406Z,3.83
2022-11-14T13:29:39.138Z,3.58
2022-11-14T13:32:43.100Z,3.60
2022-11-14T13:35:45.095Z,3.65
2022-11-14T13:38:45.232Z,4.43
2022-11-14T13:41:47.360Z,3.47
2022-11-14T13:44:51.695Z,4.32
2022-11-14T13:48:11.557Z,4.63
2022-11-14T13:51:21.791Z,3.45
2022-11-14T13:54:17.841Z,3.80
2022-11-14T13:57:24.760Z,3.72
2022-11-14T14:00:19.543Z,3.65
2022-11-14T14:03:20.772Z,3.67
2022-11-14T14:06:22.306Z,3.17
2022-11-14T14:09:10.980Z,3.95
2022-11-14T14:12:17.785Z,3.40
2022-11-14T14:15:12.095Z,3.97
2022-11-14T14:18:25.398Z,3.78
2022-11-14T14:21:48.911Z,3.42
2022-11-14T14:24:58.389Z,3.65
2022-11-14T14:28:19.608Z,3.30
2022-11-14T14:31:08.324Z,3.60
2022-11-14T14:33:54.006Z,3.15
2022-11-14T14:36:53.648Z,3.20
2022-11-14T14:39:39.017Z,3.40
2022-11-14T14:42:29.609Z,2.90
2022-11-14T14:45:22.497Z,3.40
2022-11-14T14:48:15.103Z,3.47
2022-11-14T14:51:02.968Z,3.15
2022-11-14T14:53:53.955Z,3.88
2022-11-14T14:57:00.480Z,3.30
2022-11-14T14:59:46.572Z,4.10
2022-11-14T15:02:32.839Z,4.32
2022-11-14T15:05:27.600Z,4.07
2022-11-14T15:08:15.655Z,5.43
2022-11-14T15:11:02.267Z,5.00
2022-11-14T15:13:52.874Z,4.65
2022-11-14T15:16:38.954Z,5.13
2022-11-14T15:19:27.659Z,5.25
2022-11-14T15:22:16.560Z,4.28
2022-11-14T15:25:13.710Z,4.88
2022-11-14T15:28:00.369Z,4.53
2022-11-14T15:31:03.784Z,5.80
2022-11-14T15:34:05.345Z,6.25
2022-11-14T15:37:16.688Z,5.68
2022-11-14T15:40:20.382Z,4.95
2022-11-14T15:43:42.930Z,4.47
2022-11-14T15:46:34.315Z,6.18
2022-11-14T15:49:24.037Z,5.80
2022-11-14T15:52:33.472Z,4.45
2022-11-14T15:55:21.601Z,5.65
2022-11-14T15:58:27.740Z,6.75
2022-11-14T16:01:20.171Z,5.38
2022-11-14T16:04:06.081Z,6.38
2022-11-14T16:06:52.006Z,4.78
2022-11-14T16:09:40.512Z,5.80
2022-11-14T16:12:27.332Z,5.45
2022-11-14T16:15:13.184Z,6.35
2022-11-14T16:17:58.832Z,6.32
2022-11-14T16:20:44.344Z,6.63
2022-11-14T16:23:30.139Z,5.63
2022-11-14T16:26:16.366Z,5.82
2022-11-14T16:29:02.118Z,4.68
2022-11-14T16:31:48.551Z,6.10
2022-11-14T16:34:33.954Z,5.43
2022-11-14T16:37:19.549Z,6.28
2022-11-14T16:40:05.841Z,6.32
2022-11-14T16:42:53.682Z,5.68
2022-11-14T16:45:42.102Z,5.63
2022-11-14T16:48:27.504Z,5.63
2022-11-14T16:51:40.793Z,4.80
2022-11-14T16:54:20.460Z,5.88
2022-11-14T16:57:06.241Z,7.07
2022-11-14T16:59:51.894Z,6.53
2022-11-14T17:02:37.535Z,5.35
2022-11-14T17:05:23.161Z,6.38
2022-11-14T17:08:08.786Z,6.13
2022-11-14T17:10:54.792Z,6.88
2022-11-14T17:13:40.380Z,6.15
2022-11-14T17:16:26.130Z,6.20
2022-11-14T17:19:14.091Z,6.13
2022-11-14T17:21:59.676Z,6.15
2022-11-14T17:24:47.132Z,6.22
2022-11-14T17:27:33.032Z,4.90
2022-11-14T17:30:19.335Z,7.15
2022-11-14T17:33:04.665Z,5.43
2022-11-14T17:35:50.252Z,6.40
2022-11-14T17:38:37.533Z,6.25
2022-11-14T17:41:24.019Z,6.45
2022-11-14T17:44:09.946Z,6.00
2022-11-14T17:46:55.237Z,4.32
2022-11-14T17:49:40.746Z,4.63
2022-11-14T17:52:27.207Z,5.28
2022-11-14T17:55:13.210Z,5.55
2022-11-14T17:57:58.819Z,4.95
2022-11-14T18:00:44.758Z,5.95
2022-11-14T18:03:30.665Z,6.63
2022-11-14T18:06:20.770Z,5.78
2022-11-14T18:09:08.136Z,4.63
2022-11-14T18:11:55.661Z,5.30
2022-11-14T18:14:47.353Z,7.57
2022-11-14T18:17:32.965Z,6.07
2022-11-14T18:20:18.345Z,5.57
2022-11-14T18:23:03.992Z,6.28
2022-11-14T18:25:49.371Z,5.70
2022-11-14T18:28:35.114Z,5.85
2022-11-14T18:31:21.148Z,5.07
2022-11-14T18:34:06.793Z,6.10
2022-11-14T18:36:52.078Z,6.13
2022-11-14T18:39:37.584Z,5.75
2022-11-14T18:42:23.669Z,5.70
2022-11-14T18:45:09.410Z,5.55
2022-11-14T18:47:57.802Z,5.47
2022-11-14T18:50:43.979Z,7.18
2022-11-14T18:53:36.485Z,5.20
2022-11-14T18:56:23.986Z,7.28
2022-11-14T18:59:09.687Z,5.93
2022-11-14T19:01:57.913Z,6.43
2022-11-14T19:04:43.314Z,6.65
2022-11-14T19:07:30.604Z,8.30
2022-11-14T19:10:16.396Z,5.10
2022-11-14T19:13:02.145Z,5.95
2022-11-14T19:15:47.780Z,7.97
2022-11-14T19:18:33.510Z,6.05
2022-11-14T19:21:19.062Z,5.65
2022-11-14T19:24:05.421Z,6.65
2022-11-14T19:26:52.485Z,8.55
2022-11-14T19:29:37.912Z,8.35
2022-11-14T19:32:23.785Z,6.22
2022-11-14T19:35:09.558Z,6.07
2022-11-14T19:37:56.723Z,7.53
2022-11-14T19:40:42.864Z,7.50
2022-11-14T19:43:29.206Z,6.18
2022-11-14T19:46:18.180Z,6.03
2022-11-14T19:49:04.248Z,7.28
2022-11-14T19:51:50.356Z,6.30
2022-11-14T19:54:38.370Z,6.50
2022-11-14T19:57:25.308Z,7.18
2022-11-14T20:00:11.334Z,6.55
2022-11-14T20:02:57.025Z,6.78
2022-11-14T20:05:44.371Z,8.02
2022-11-14T20:08:32.424Z,7.30
2022-11-14T20:11:19.502Z,6.82
2022-11-14T20:14:06.875Z,8.20
2022-11-14T20:16:53.977Z,7.47
2022-11-14T20:19:39.457Z,6.35
2022-11-14T20:22:25.149Z,8.77
2022-11-14T20:25:15.618Z,7.38
2022-11-14T20:28:01.719Z,6.82
2022-11-14T20:30:49.753Z,7.97
2022-11-14T20:33:41.400Z,8.73
2022-11-14T20:36:38.992Z,7.30
2022-11-14T20:39:29.619Z,7.20
2022-11-14T20:42:18.850Z,8.25
2022-11-14T20:45:05.939Z,6.88
2022-11-14T20:47:51.692Z,7.45
2022-11-14T20:50:37.660Z,6.80
2022-11-14T20:53:23.342Z,7.93
2022-11-14T20:56:09.901Z,7.68
2022-11-14T20:58:55.672Z,8.30
2022-11-14T21:01:44.184Z,7.55
2022-11-14T21:04:32.822Z,7.43
2022-11-14T21:07:19.233Z,8.90
2022-11-14T21:10:23.873Z,7.78
2022-11-14T21:13:28.470Z,7.90
2022-11-14T21:16:22.039Z,8.40
2022-11-14T21:19:08.393Z,7.65
2022-11-14T21:21:53.910Z,8.77
2022-11-14T21:24:39.992Z,9.35
2022-11-14T21:27:25.894Z,8.88
2022-11-14T21:30:13.612Z,8.20
2022-11-14T21:32:59.486Z,8.70
2022-11-14T21:35:45.146Z,8.23
2022-11-14T21:38:33.073Z,8.30
2022-11-14T21:41:21.673Z,10.13
2022-11-14T21:44:10.081Z,8.27
2022-11-14T21:46:55.574Z,9.15
2022-11-14T21:49:41.429Z,10.18
2022-11-14T21:52:27.216Z,10.73
2022-11-14T21:55:13.014Z,9.27
2022-11-14T21:57:58.786Z,9.40
2022-11-14T22:00:44.176Z,8.93
2022-11-14T22:03:48.253Z,9.18
2022-11-14T22:06:33.731Z,8.63
2022-11-14T22:09:19.350Z,8.63
2022-11-14T22:12:05.916Z,10.25
2022-11-14T22:14:51.556Z,9.20
2022-11-14T22:17:37.029Z,10.65
2022-11-14T22:20:23.427Z,8.82
2022-11-14T22:23:08.907Z,9.90
2022-11-14T22:25:59.625Z,9.80
2022-11-14T22:28:45.536Z,8.85
2022-11-14T22:31:32.696Z,10.80
2022-11-14T22:34:18.154Z,12.75
2022-11-14T22:37:03.679Z,10.73
2022-11-14T22:39:49.640Z,11.00
2022-11-14T22:42:34.996Z,12.63
2022-11-14T22:45:22.219Z,10.80
2022-11-14T22:48:07.877Z,11.98
2022-11-14T22:51:22.723Z,10.85
2022-11-14T22:54:08.287Z,10.98
2022-11-14T22:56:55.106Z,10.65
2022-11-14T22:59:41.230Z,9.40
2022-11-14T23:02:26.703Z,11.27
2022-11-14T23:05:14.791Z,10.52
2022-11-14T23:08:00.768Z,9.88
2022-11-14T23:10:47.837Z,8.65
2022-11-14T23:13:38.643Z,10.30
2022-11-14T23:16:34.452Z,9.45
2022-11-14T23:19:20.148Z,9.30
2022-11-14T23:22:05.834Z,8.85
2022-11-14T23:24:51.488Z,9.20
2022-11-14T23:27:37.371Z,9.50
2022-11-14T23:30:29.228Z,9.25
2022-11-14T23:33:14.741Z,9.35
2022-11-14T23:36:00.612Z,8.10
2022-11-14T23:38:46.516Z,9.00
2022-11-14T23:41:32.265Z,9.82
2022-11-14T23:44:17.623Z,8.15
2022-11-14T23:47:03.523Z,9.15
2022-11-14T23:49:51.189Z,7.03
2022-11-14T23:52:38.404Z,9.80
2022-11-14T23:55:23.949Z,8.73
2022-11-14T23:58:09.372Z,10.70
